Nearby METAR Reports

Here are local weather reports from nearby weather stations and airports.

KHFD - Hartford/Brainar, Connecticut, USA
Distance from station: NE 5mi, 8km
Updated: Wed, 12/02/20 12:53am EST
Few Clouds
Few Clouds
 Wind from SSW
Wind: SSW 7 mph , 11 km/h
Temperature: 37°F , 3°C
Wind Chill: 32°F , 0°C
Dew Point: 23°F , -5°C
Humidity: 56%
Barometer: 29.79 inHg , 1008.8 hPa
Clouds: Few Clouds
Visibility: 10 miles , 16 km
Cloud details: Few Clouds 3800 ft
2020/12/02 05:53 KHFD 020553Z AUTO 21006KT 10SM FEW038 03/M05 A2979 RMK AO2 SLP086 T00331050 10078 20033 51020
KMMK - Meriden, Connecticut, USA
Distance from station: SSW 13mi, 21km
Updated: Wed, 12/02/20 12:53am EST
Clear
Clear
 Wind from S
Wind: S 6 mph , 9 km/h
Temperature: 36°F , 2°C
Wind Chill: 31°F , -1°C
Dew Point: 23°F , -5°C
Humidity: 60%
Barometer: 29.79 inHg , 1008.8 hPa
Clouds: Clear
Visibility: 10 miles , 16 km
2020/12/02 05:53 KMMK 020553Z AUTO 19005KT 10SM CLR 02/M05 A2979 RMK AO2 SLP090 T00221050 10067 20022 51015
 
KBDL - Windsor Locks, Connecticut, USA
Distance from station: N 17mi, 28km
Updated: Wed, 12/02/20 12:51am EST
Partly cloudy
Partly cloudy
 Wind from S
Wind: S 9 mph , 15 km/h
Temperature: 37°F , 3°C
Wind Chill: 30°F , -1°C
Dew Point: 21°F , -6°C
Humidity: 52%
Barometer: 29.76 inHg , 1007.8 hPa
Clouds: Partly cloudy
Visibility: 10 miles , 16 km
Cloud details: Partly cloudy 4200 ft
2020/12/02 05:51 KBDL 020551Z 19008KT 10SM SCT042 03/M06 A2976 RMK AO2 SLP078 T00281056 10072 20028 51017
KSNC - Chester, Connecticut, USA
Distance from station: SSE 24mi, 38km
Updated: Wed, 12/02/20 12:55am EST
Overcast
Overcast
 Wind from WSW
Wind: WSW 8 mph , 13 km/h
Temperature: 37°F , 3°C
Wind Chill: 31°F , -1°C
Dew Point: 23°F , -5°C
Humidity: 56%
Barometer: 29.79 inHg , 1008.8 hPa
Clouds: Overcast
Visibility: 10 miles , 16 km
Cloud details: Overcast 3400 ft
2020/12/02 05:55 KSNC 020555Z AUTO 25007KT 10SM OVC034 03/M05 A2979 RMK AO2
 
KOXC - Oxford/Waterbury, Connecticut, USA
Distance from station: SW 26mi, 42km
Updated: Wed, 12/02/20 12:51am EST
Overcast
Overcast
 Wind from SW
Wind: SW 9 mph , 15 km/h
Temperature: 34°F , 1°C
Wind Chill: 27°F , -3°C
Dew Point: 25°F , -4°C
Humidity: 70%
Barometer: 29.77 inHg , 1008.1 hPa
Clouds: Overcast
Visibility: 10 miles , 16 km
Cloud details: Overcast 3200 ft
2020/12/02 05:51 KOXC 020551Z AUTO 23008KT 10SM OVC032 01/M04 A2977 RMK AO2 SLP098 T00111039 10050 20011 51014 FZRANO
KIJD - Willimantic, Connecticut, USA
Distance from station: E 28mi, 45km
Updated: Wed, 12/02/20 12:52am EST
Clear
Clear
 Wind from SW
Wind: SW 12 mph , 19 km/h, Gust: 17 mph , 28 km/h
Temperature: 37°F , 3°C
Wind Chill: 29°F , -2°C
Dew Point: 23°F , -5°C
Humidity: 56%
Barometer: 29.78 inHg , 1008.5 hPa
Clouds: Clear
Visibility: 10 miles , 16 km
2020/12/02 05:52 KIJD 020552Z AUTO 22010G15KT 10SM CLR 03/M05 A2978 RMK AO2 SLP086 T00281050 10067 20028 51021
 
KHVN - New Haven/Tweed, Connecticut, USA
Distance from station: SSW 30mi, 48km
Updated: Wed, 12/02/20 12:53am EST
Few Clouds
Few Clouds
 Wind from WSW
Wind: WSW 9 mph , 15 km/h, Gust: 18 mph , 30 km/h
Temperature: 41°F , 5°C
Wind Chill: 35°F , 2°C
Dew Point: 28°F , -2°C
Humidity: 61%
Barometer: 29.80 inHg , 1009.1 hPa
Clouds: Few Clouds
Visibility: 10 miles , 16 km
Cloud details: Few Clouds 3700 ft
2020/12/02 05:53 KHVN 020553Z AUTO 25008G16KT 10SM FEW037 05/M02 A2980 RMK AO2 SLP092 T00501022 10089 20050 51015
KBAF - Westfield, Massachusetts, USA
Distance from station: 0 33mi, 54km
Updated: Wed, 12/02/20 12:53am EST
Overcast
Overcast
 Wind from SSW
Wind: SSW 13 mph , 20 km/h
Temperature: 37°F , 3°C
Wind Chill: 29°F , -2°C
Dew Point: 23°F , -5°C
Humidity: 56%
Barometer: 29.74 inHg , 1007.1 hPa
Clouds: Overcast
Visibility: 10 miles , 16 km
Cloud details: Overcast 4400 ft
2020/12/02 05:53 KBAF 020553Z AUTO 21011KT 10SM OVC044 03/M05 A2974 RMK AO2 SLP074 T00331050 10067 20033 51016
 
KCEF - Chicopee/Westove, Massachusetts, USA
Distance from station: NNE 37mi, 60km
Updated: Wed, 12/02/20 12:56am EST
Overcast
Overcast
 Wind from WSW
Wind: WSW 13 mph , 20 km/h, Gust: 18 mph , 30 km/h
Temperature: 39°F , 4°C
Wind Chill: 31°F , -1°C
Dew Point: 23°F , -5°C
Humidity: 52%
Barometer: 29.74 inHg , 1007.1 hPa
Clouds: Overcast
Visibility: 10 miles , 16 km
Cloud details: Overcast 4000 ft
2020/12/02 05:56 KCEF 020556Z AUTO 24011G16KT 10SM OVC040 04/M05 A2974 RMK AO2 SLP078 T00371055 10071 20036 52019
KBDR - Bridgeport, Connecticut, USA
Distance from station: SSW 42mi, 67km
Updated: Tue, 12/01/20 11:52pm EST
NOT Current
Partly cloudy
Partly cloudy
 Wind from W
Wind: W 14 mph , 22 km/h, Gust: 22 mph , 35 km/h
Temperature: 39°F , 4°C
Wind Chill: 31°F , -1°C
Dew Point: 27°F , -3°C
Humidity: 61%
Barometer: 29.80 inHg , 1009.1 hPa
Clouds: Partly cloudy
Visibility: 10 miles , 16 km
Cloud details: Partly cloudy 3800 ft
2020/12/02 04:52 KBDR 020452Z AUTO 26012G19KT 10SM SCT038 04/M03 A2980 RMK AO2 SLP089 T00441033 401500044
 
KGON - Groton/New Londo, Connecticut, USA
Distance from station: SE 42mi, 68km
Updated: Wed, 12/02/20 12:56am EST
Partly cloudy
Partly cloudy
 Wind from W
Wind: W 8 mph , 13 km/h
Temperature: 39°F , 4°C
Wind Chill: 33°F , 1°C
Dew Point: 27°F , -3°C
Humidity: 61%
Barometer: 29.80 inHg , 1009.1 hPa
Clouds: Partly cloudy
Visibility: 10 miles , 16 km
Cloud details: Partly cloudy 4200 ft
2020/12/02 05:56 KGON 020556Z AUTO 28007KT 10SM SCT042 04/M03 A2980 RMK AO2 SLP091 T00441033 10083 20039 51017
KDXR - Danbury, Connecticut, USA
Distance from station: WSW 45mi, 73km
Updated: Wed, 12/02/20 12:53am EST
Clear
Clear
 Wind from SW
Wind: SW 13 mph , 20 km/h
Temperature: 34°F , 1°C
Wind Chill: 25°F , -4°C
Dew Point: 23°F , -5°C
Humidity: 65%
Barometer: 29.79 inHg , 1008.8 hPa
Clouds: Clear
Visibility: 10 miles , 16 km
2020/12/02 05:53 KDXR 020553Z AUTO 23011KT 10SM CLR 01/M05 A2979 RMK AO2 SLP089 T00111050 10056 20011 51012